createdAt,value
2023-05-24T00:00:22.747Z,1.83
2023-05-24T00:03:24.750Z,1.70
2023-05-24T00:06:27.654Z,1.40
2023-05-24T00:09:33.033Z,3.10
2023-05-24T00:12:34.895Z,2.03
2023-05-24T00:15:36.816Z,1.70
2023-05-24T00:18:41.629Z,1.27
2023-05-24T00:22:21.393Z,2.72
2023-05-24T00:25:23.419Z,2.55
2023-05-24T00:28:25.476Z,2.10
2023-05-24T00:31:27.466Z,1.40
2023-05-24T00:34:29.419Z,1.77
2023-05-24T00:37:31.349Z,4.68
2023-05-24T00:40:33.335Z,1.50
2023-05-24T00:43:35.684Z,2.70
2023-05-24T00:46:38.031Z,1.83
2023-05-24T00:49:40.742Z,1.50
2023-05-24T00:52:43.592Z,6.15
2023-05-24T00:55:47.386Z,1.98
2023-05-24T00:58:54.608Z,2.73
2023-05-24T01:01:56.786Z,3.58
2023-05-24T01:05:00.081Z,2.45
2023-05-24T01:08:20.620Z,2.58
2023-05-24T01:11:59.796Z,3.13
2023-05-24T01:15:15.059Z,2.80
2023-05-24T01:18:30.383Z,3.75
2023-05-24T01:21:48.452Z,3.47
2023-05-24T01:25:06.262Z,5.15
2023-05-24T01:28:09.619Z,2.83
2023-05-24T01:31:13.605Z,2.67
2023-05-24T01:34:16.307Z,2.05
2023-05-24T01:37:18.396Z,2.38
2023-05-24T01:40:20.603Z,2.60
2023-05-24T01:43:22.446Z,5.18
2023-05-24T01:46:37.537Z,2.57
2023-05-24T01:49:44.685Z,3.30
2023-05-24T01:52:48.184Z,4.22
2023-05-24T01:55:54.143Z,3.00
2023-05-24T01:58:58.908Z,2.33
2023-05-24T02:02:01.676Z,2.93
2023-05-24T02:05:04.165Z,5.65
2023-05-24T02:08:06.128Z,2.60
2023-05-24T02:12:07.833Z,3.30
2023-05-24T02:15:14.853Z,2.47
2023-05-24T02:18:18.735Z,4.03
2023-05-24T02:21:20.982Z,2.95
2023-05-24T02:24:22.996Z,2.25
2023-05-24T02:27:24.935Z,3.22
2023-05-24T02:30:27.399Z,5.25
2023-05-24T02:33:30.041Z,3.00
2023-05-24T02:36:32.699Z,2.25
2023-05-24T02:39:34.691Z,2.55
2023-05-24T02:42:36.707Z,4.35
2023-05-24T02:45:38.790Z,3.20
2023-05-24T02:48:41.071Z,2.80
2023-05-24T02:51:43.094Z,2.40
2023-05-24T02:54:44.973Z,2.95
2023-05-24T02:57:48.220Z,2.28
2023-05-24T03:00:51.063Z,3.05
2023-05-24T03:29:21.997Z,1.83
2023-05-24T03:32:25.543Z,2.58
2023-05-24T03:35:27.572Z,1.52
2023-05-24T03:38:31.854Z,3.20
2023-05-24T03:41:33.955Z,2.45
2023-05-24T03:44:35.950Z,1.17
2023-05-24T03:47:37.897Z,1.75
2023-05-24T03:50:39.943Z,3.45
2023-05-24T03:53:41.904Z,1.67
2023-05-24T03:56:44.662Z,1.88
2023-05-24T03:59:46.669Z,2.87
2023-05-24T04:02:49.337Z,1.60
2023-05-24T04:05:51.527Z,2.30
2023-05-24T04:08:53.636Z,2.00
2023-05-24T04:11:55.836Z,1.55
2023-05-24T04:14:58.837Z,1.93
2023-05-24T04:18:03.414Z,2.13
2023-05-24T04:21:05.657Z,2.45
2023-05-24T04:24:07.755Z,1.80
2023-05-24T04:27:09.990Z,1.63
2023-05-24T04:30:12.225Z,2.17
2023-05-24T04:33:15.027Z,2.80
2023-05-24T04:36:17.824Z,5.28
2023-05-24T04:39:19.783Z,1.95
2023-05-24T04:42:22.217Z,1.63
2023-05-24T04:45:25.037Z,1.90
2023-05-24T04:48:27.306Z,2.22
2023-05-24T04:51:29.450Z,2.38
2023-05-24T04:54:31.350Z,2.53
2023-05-24T04:57:33.434Z,2.72
2023-05-24T05:00:35.514Z,1.67
2023-05-24T05:03:37.476Z,2.28
2023-05-24T05:06:40.632Z,2.83
2023-05-24T05:09:42.558Z,2.42
2023-05-24T05:12:44.627Z,2.28
2023-05-24T05:15:46.579Z,2.00
2023-05-24T05:18:48.486Z,2.58
2023-05-24T05:21:50.881Z,2.55
2023-05-24T05:24:52.963Z,4.82
2023-05-24T05:27:54.939Z,2.80
2023-05-24T05:30:56.942Z,3.03
2023-05-24T05:33:59.017Z,1.70
2023-05-24T05:37:01.004Z,2.60
2023-05-24T05:40:04.095Z,1.63
2023-05-24T05:43:06.038Z,2.88
2023-05-24T05:46:08.275Z,2.50
2023-05-24T05:49:10.350Z,1.55
2023-05-24T05:52:12.390Z,1.67
2023-05-24T05:55:14.381Z,2.35
2023-05-24T05:58:16.394Z,2.10
2023-05-24T06:01:18.337Z,1.83
2023-05-24T06:04:20.521Z,1.45
2023-05-24T06:07:22.754Z,1.95
2023-05-24T06:10:24.772Z,2.15
2023-05-24T06:13:28.864Z,1.88
2023-05-24T06:16:32.635Z,2.33
2023-05-24T06:19:34.939Z,3.08
2023-05-24T06:22:38.661Z,5.93
2023-05-24T06:25:43.886Z,1.92
2023-05-24T06:28:45.838Z,3.30
2023-05-24T06:31:48.956Z,2.13
2023-05-24T06:34:51.288Z,3.25
2023-05-24T06:37:53.186Z,2.08
2023-05-24T06:40:55.220Z,2.67
2023-05-24T06:43:57.190Z,3.22
2023-05-24T06:46:59.170Z,2.37
2023-05-24T06:50:04.123Z,3.63
2023-05-24T06:53:06.790Z,2.20
2023-05-24T06:56:09.555Z,3.30
2023-05-24T06:59:11.805Z,2.88
2023-05-24T07:02:13.880Z,2.23
2023-05-24T07:05:16.078Z,2.22
2023-05-24T07:08:18.185Z,2.30
2023-05-24T07:11:20.157Z,2.08
2023-05-24T07:14:24.100Z,2.63
2023-05-24T07:17:26.413Z,3.00
2023-05-24T07:20:28.909Z,3.17
2023-05-24T07:23:31.259Z,2.78
2023-05-24T07:26:33.313Z,2.13
2023-05-24T07:29:35.330Z,2.40
2023-05-24T07:32:37.559Z,2.53
2023-05-24T07:35:40.374Z,2.47
2023-05-24T07:38:42.711Z,3.22
2023-05-24T07:41:45.084Z,5.63
2023-05-24T07:44:47.048Z,3.10
2023-05-24T07:47:49.023Z,3.83
2023-05-24T07:50:52.148Z,2.83
2023-05-24T07:53:54.069Z,2.65
2023-05-24T07:56:57.443Z,2.15
2023-05-24T07:59:59.435Z,3.78
2023-05-24T08:03:01.920Z,2.57
2023-05-24T08:06:04.185Z,2.42
2023-05-24T08:09:07.725Z,2.45
2023-05-24T08:12:09.994Z,2.83
2023-05-24T08:15:11.955Z,3.03
2023-05-24T08:18:55.379Z,2.50
2023-05-24T08:22:57.296Z,3.88
2023-05-24T08:26:20.942Z,2.38
2023-05-24T08:29:23.005Z,3.60
2023-05-24T08:32:25.211Z,2.67
2023-05-24T08:35:27.193Z,2.03
2023-05-24T08:38:29.492Z,5.50
2023-05-24T08:41:37.407Z,3.60
2023-05-24T08:44:47.256Z,2.58
2023-05-24T08:47:50.747Z,2.08
2023-05-24T08:50:53.397Z,4.53
2023-05-24T08:53:57.042Z,2.75
2023-05-24T08:56:59.652Z,3.13
2023-05-24T09:00:02.119Z,3.45
2023-05-24T09:03:06.350Z,4.47
2023-05-24T09:06:12.180Z,3.73
2023-05-24T09:09:17.913Z,4.20
2023-05-24T09:12:35.658Z,3.95
2023-05-24T09:15:39.989Z,2.90
2023-05-24T09:18:42.965Z,4.00
2023-05-24T09:21:45.355Z,3.57
2023-05-24T09:24:48.634Z,3.20
2023-05-24T09:27:52.278Z,4.50
2023-05-24T09:31:05.422Z,4.22
2023-05-24T09:34:13.533Z,3.30
2023-05-24T09:37:17.959Z,4.53
2023-05-24T09:40:20.778Z,4.30
2023-05-24T09:43:24.909Z,6.80
2023-05-24T09:46:29.857Z,3.60
2023-05-24T09:49:32.628Z,4.30
2023-05-24T09:52:38.439Z,4.60
2023-05-24T09:55:40.796Z,4.72
2023-05-24T09:58:42.936Z,4.50
2023-05-24T10:01:46.246Z,3.22
2023-05-24T10:04:48.491Z,3.97
2023-05-24T10:07:51.912Z,4.33
2023-05-24T10:10:56.560Z,4.95
2023-05-24T10:13:59.552Z,4.78
2023-05-24T10:17:10.773Z,5.22
2023-05-24T10:20:13.050Z,6.68
2023-05-24T10:34:07.046Z,3.53
2023-05-24T11:07:58.643Z,2.85
2023-05-24T11:11:28.654Z,2.88
2023-05-24T11:14:39.524Z,5.13
2023-05-24T11:18:09.392Z,2.05
2023-05-24T11:21:11.529Z,1.65
2023-05-24T11:24:13.921Z,2.00
2023-05-24T11:27:16.102Z,3.05
2023-05-24T11:30:18.453Z,2.17
2023-05-24T11:33:24.486Z,2.03
2023-05-24T11:36:26.570Z,1.92
2023-05-24T11:39:52.838Z,1.70
2023-05-24T11:42:55.281Z,2.33
2023-05-24T11:45:57.423Z,3.10
2023-05-24T11:49:00.205Z,2.00
2023-05-24T11:52:03.254Z,2.88
2023-05-24T11:55:06.276Z,1.48
2023-05-24T11:58:19.772Z,1.65
2023-05-24T12:01:27.805Z,1.83
2023-05-24T12:04:30.574Z,2.17
2023-05-24T12:07:33.124Z,1.83
2023-05-24T12:10:36.886Z,2.13
2023-05-24T12:13:40.474Z,2.17
2023-05-24T12:16:43.896Z,2.03
2023-05-24T12:19:49.987Z,3.25
2023-05-24T12:22:53.031Z,1.58
2023-05-24T12:26:01.912Z,1.50
2023-05-24T12:29:04.043Z,2.40
2023-05-24T12:32:11.951Z,1.83
2023-05-24T12:35:13.976Z,2.00
2023-05-24T12:38:25.052Z,1.80
2023-05-24T12:41:30.787Z,2.30
2023-05-24T12:44:36.109Z,1.83
2023-05-24T12:47:38.232Z,2.63
2023-05-24T12:50:40.316Z,1.75
2023-05-24T12:53:43.421Z,1.35
2023-05-24T12:56:45.751Z,1.80
2023-05-24T12:59:48.345Z,1.63
2023-05-24T13:02:53.075Z,1.50
2023-05-24T13:05:55.129Z,1.90
2023-05-24T13:08:57.114Z,1.83
2023-05-24T13:11:59.022Z,4.43
2023-05-24T13:15:00.987Z,2.03
2023-05-24T13:18:02.993Z,1.67
2023-05-24T13:21:05.583Z,1.88
2023-05-24T13:24:07.820Z,1.75
2023-05-24T13:27:10.232Z,1.85
2023-05-24T13:30:12.628Z,2.33
2023-05-24T13:33:14.956Z,1.73
2023-05-24T13:36:17.445Z,1.73
2023-05-24T13:39:20.383Z,3.03
2023-05-24T13:42:22.283Z,2.13
2023-05-24T13:45:25.134Z,1.73
2023-05-24T13:48:27.197Z,1.20
2023-05-24T13:51:29.497Z,1.60
2023-05-24T13:55:18.670Z,1.80
2023-05-24T13:58:20.814Z,1.42
2023-05-24T14:01:22.757Z,4.28
2023-05-24T14:04:24.761Z,1.20
2023-05-24T14:07:26.979Z,4.43
2023-05-24T14:10:28.974Z,1.40
2023-05-24T14:16:36.753Z,1.95
2023-05-24T14:19:39.081Z,1.33
2023-05-24T14:22:41.438Z,2.30
2023-05-24T14:25:46.498Z,1.50
2023-05-24T14:32:43.872Z,2.35
2023-05-24T14:35:46.564Z,1.80
2023-05-24T14:38:48.684Z,1.85
2023-05-24T14:41:50.721Z,1.35
2023-05-24T14:44:52.718Z,1.48
2023-05-24T14:47:54.614Z,1.58
2023-05-24T14:50:56.625Z,1.53
2023-05-24T14:53:58.648Z,3.67
2023-05-24T14:57:01.075Z,3.58
2023-05-24T15:00:03.863Z,2.80
2023-05-24T15:07:00.844Z,2.70
2023-05-24T15:10:03.215Z,2.58
2023-05-24T15:13:05.695Z,2.03
2023-05-24T15:16:07.653Z,2.08
2023-05-24T15:19:10.197Z,1.52
2023-05-24T15:22:12.178Z,1.63
2023-05-24T15:25:14.411Z,2.08
2023-05-24T15:28:18.391Z,2.13
2023-05-24T15:31:20.511Z,1.75
2023-05-24T15:34:23.747Z,1.15
2023-05-24T15:37:26.284Z,1.40
2023-05-24T15:40:28.526Z,1.48
2023-05-24T15:43:30.758Z,4.22
2023-05-24T15:46:32.823Z,1.23
2023-05-24T15:49:34.984Z,2.17
2023-05-24T15:52:37.122Z,2.17
2023-05-24T15:55:39.127Z,2.00
2023-05-24T15:58:41.124Z,1.50
2023-05-24T16:01:43.065Z,2.58
2023-05-24T16:04:44.954Z,1.55
2023-05-24T16:07:46.920Z,2.13
2023-05-24T16:10:49.222Z,1.30
2023-05-24T16:13:51.251Z,1.52
2023-05-24T16:16:53.277Z,1.88
2023-05-24T16:19:55.414Z,3.25
2023-05-24T16:22:58.133Z,4.47
2023-05-24T16:26:00.213Z,1.67
2023-05-24T16:29:02.176Z,2.83
2023-05-24T16:32:04.438Z,3.83
2023-05-24T16:35:07.568Z,2.75
2023-05-24T16:38:09.485Z,3.10
2023-05-24T16:41:11.565Z,5.60
2023-05-24T16:44:17.805Z,4.68
2023-05-24T16:47:20.139Z,4.85
2023-05-24T16:50:22.077Z,5.35
2023-05-24T16:53:26.132Z,5.00
2023-05-24T16:56:28.072Z,6.32
2023-05-24T16:59:30.052Z,7.32
2023-05-24T17:02:32.124Z,6.53
2023-05-24T17:05:34.146Z,6.80
2023-05-24T17:08:36.634Z,5.97
2023-05-24T17:11:39.696Z,7.20
2023-05-24T17:14:41.819Z,5.05
2023-05-24T17:17:43.764Z,3.53
2023-05-24T17:20:46.062Z,2.97
2023-05-24T17:23:48.468Z,4.67
2023-05-24T17:26:50.468Z,2.78
2023-05-24T17:29:52.414Z,3.25
2023-05-24T17:32:54.464Z,3.33
2023-05-24T17:35:57.684Z,3.25
2023-05-24T17:38:59.555Z,1.70
2023-05-24T17:42:01.476Z,1.85
2023-05-24T17:45:04.278Z,1.48
2023-05-24T17:48:07.089Z,2.00
2023-05-24T17:51:10.402Z,2.10
2023-05-24T17:54:12.288Z,1.90
2023-05-24T17:57:14.198Z,1.70
2023-05-24T18:00:16.982Z,1.95
2023-05-24T18:03:22.256Z,2.30
2023-05-24T18:10:24.469Z,1.83
2023-05-24T18:13:28.132Z,2.92
2023-05-24T18:16:31.498Z,1.98
2023-05-24T18:19:33.538Z,2.20
2023-05-24T18:22:35.496Z,3.13
2023-05-24T18:25:37.487Z,2.07
2023-05-24T18:28:39.514Z,2.88
2023-05-24T18:31:41.558Z,4.15
2023-05-24T18:34:43.618Z,3.55
2023-05-24T18:37:45.522Z,3.75
2023-05-24T18:44:01.501Z,3.17
2023-05-24T18:47:07.024Z,6.05
2023-05-24T18:50:09.507Z,3.75
2023-05-24T18:53:11.423Z,3.15
2023-05-24T18:56:13.471Z,2.60
2023-05-24T18:59:16.830Z,5.70
2023-05-24T19:02:18.970Z,3.63
2023-05-24T19:05:21.151Z,4.60
2023-05-24T19:08:23.074Z,3.97
2023-05-24T19:11:24.967Z,4.57
2023-05-24T19:14:26.824Z,5.43
2023-05-24T19:17:28.802Z,3.95
2023-05-24T19:20:30.914Z,6.05
2023-05-24T19:23:32.878Z,4.22
2023-05-24T19:26:34.856Z,4.03
2023-05-24T19:29:37.068Z,3.50
2023-05-24T19:32:39.024Z,4.53
2023-05-24T19:35:41.210Z,4.38
2023-05-24T19:38:43.761Z,4.10
2023-05-24T19:41:45.758Z,4.73
2023-05-24T19:44:47.726Z,5.03
2023-05-24T19:47:49.980Z,2.85
2023-05-24T19:50:51.951Z,5.45
2023-05-24T19:53:53.882Z,4.00
2023-05-24T19:56:57.775Z,4.57
2023-05-24T20:00:00.818Z,5.55
2023-05-24T20:03:02.776Z,4.72
2023-05-24T20:06:04.826Z,4.22
2023-05-24T20:09:06.867Z,3.25
2023-05-24T20:12:08.940Z,3.40
2023-05-24T20:15:11.616Z,3.53
2023-05-24T20:18:13.555Z,3.22
2023-05-24T20:21:17.456Z,3.92
2023-05-24T20:24:19.515Z,5.10
2023-05-24T20:27:21.515Z,3.97
2023-05-24T20:30:23.556Z,2.72
2023-05-24T20:33:25.612Z,2.33
2023-05-24T20:36:27.488Z,3.10
2023-05-24T20:39:29.434Z,3.13
2023-05-24T20:42:35.583Z,1.70
2023-05-24T20:45:37.576Z,2.40
2023-05-24T20:48:39.812Z,5.07
2023-05-24T20:51:41.738Z,3.22
2023-05-24T20:54:43.854Z,3.10
2023-05-24T20:57:46.162Z,3.83
2023-05-24T21:00:48.088Z,3.10
2023-05-24T21:03:50.043Z,3.47
2023-05-24T21:06:52.022Z,4.65
2023-05-24T21:09:54.209Z,4.15
2023-05-24T21:12:56.059Z,3.43
2023-05-24T21:16:00.437Z,5.05
2023-05-24T21:19:02.661Z,5.13
2023-05-24T21:22:04.808Z,6.13
2023-05-24T21:25:07.219Z,8.43
2023-05-24T21:28:10.372Z,5.83
2023-05-24T21:31:12.349Z,6.07
2023-05-24T21:34:14.306Z,6.13
2023-05-24T21:37:17.481Z,6.90
2023-05-24T21:40:19.465Z,6.18
2023-05-24T21:43:21.790Z,5.50
2023-05-24T21:46:23.726Z,6.03
2023-05-24T21:49:27.679Z,7.95
2023-05-24T21:52:29.647Z,7.15
2023-05-24T21:55:31.635Z,5.05
2023-05-24T21:58:33.518Z,7.40
2023-05-24T22:01:36.905Z,6.10
2023-05-24T22:04:38.847Z,7.97
2023-05-24T22:07:40.922Z,6.95
2023-05-24T22:10:42.812Z,9.63
2023-05-24T22:13:44.835Z,8.03
2023-05-24T22:16:46.922Z,7.50
2023-05-24T22:19:53.193Z,7.30
2023-05-24T22:22:55.204Z,8.82
2023-05-24T22:25:57.219Z,13.32
2023-05-24T22:29:04.028Z,6.37
2023-05-24T22:32:06.151Z,8.82
2023-05-24T22:35:08.875Z,10.57
2023-05-24T22:38:12.840Z,11.63
2023-05-24T22:41:14.746Z,10.32
2023-05-24T22:44:16.868Z,11.27
2023-05-24T22:47:20.182Z,10.82
2023-05-24T22:50:22.247Z,8.23
2023-05-24T22:53:32.205Z,13.50
2023-05-24T22:56:36.068Z,8.27
2023-05-24T22:59:38.025Z,8.37
2023-05-24T23:02:39.929Z,12.23
2023-05-24T23:05:42.212Z,10.50
2023-05-24T23:08:44.505Z,12.27
2023-05-24T23:11:46.346Z,12.98
2023-05-24T23:14:48.293Z,9.10
2023-05-24T23:17:52.780Z,9.55
2023-05-24T23:20:55.970Z,7.55
2023-05-24T23:23:57.910Z,8.68
2023-05-24T23:26:59.852Z,13.88
2023-05-24T23:30:01.733Z,14.30
2023-05-24T23:33:03.711Z,12.32
2023-05-24T23:36:06.115Z,13.68
2023-05-24T23:39:10.901Z,10.63
2023-05-24T23:42:12.867Z,10.13
2023-05-24T23:45:17.865Z,9.33
2023-05-24T23:48:23.182Z,9.57
2023-05-24T23:51:25.143Z,8.25
2023-05-24T23:54:27.062Z,9.77
2023-05-24T23:57:29.853Z,11.18
